sensor_id;sensor_type;location;lat;lon;timestamp;P1;durP1;ratioP1;P2;durP2;ratioP2
31402;SDS011;18039;52.188;21.024;2022-12-18T00:02:12;41.85;;;16.92;;
31402;SDS011;18039;52.188;21.024;2022-12-18T00:04:39;38.40;;;17.58;;
31402;SDS011;18039;52.188;21.024;2022-12-18T00:07:06;45.20;;;19.48;;
31402;SDS011;18039;52.188;21.024;2022-12-18T00:09:33;42.22;;;17.65;;
31402;SDS011;18039;52.188;21.024;2022-12-18T00:12:06;41.70;;;16.40;;
31402;SDS011;18039;52.188;21.024;2022-12-18T00:14:41;35.72;;;16.02;;
31402;SDS011;18039;52.188;21.024;2022-12-18T00:17:10;35.70;;;15.93;;
31402;SDS011;18039;52.188;21.024;2022-12-18T00:19:36;41.03;;;15.57;;
31402;SDS011;18039;52.188;21.024;2022-12-18T00:22:04;34.65;;;15.50;;
31402;SDS011;18039;52.188;21.024;2022-12-18T00:24:32;38.53;;;16.55;;
31402;SDS011;18039;52.188;21.024;2022-12-18T00:26:59;42.97;;;16.60;;
31402;SDS011;18039;52.188;21.024;2022-12-18T00:29:26;35.05;;;15.95;;
31402;SDS011;18039;52.188;21.024;2022-12-18T00:31:53;37.35;;;17.02;;
31402;SDS011;18039;52.188;21.024;2022-12-18T00:34:20;40.75;;;15.43;;
31402;SDS011;18039;52.188;21.024;2022-12-18T00:36:47;45.95;;;17.10;;
31402;SDS011;18039;52.188;21.024;2022-12-18T00:39:15;40.13;;;17.17;;
31402;SDS011;18039;52.188;21.024;2022-12-18T00:41:44;40.90;;;18.05;;
31402;SDS011;18039;52.188;21.024;2022-12-18T00:44:30;41.20;;;16.85;;
31402;SDS011;18039;52.188;21.024;2022-12-18T00:46:57;43.25;;;16.05;;
31402;SDS011;18039;52.188;21.024;2022-12-18T00:49:25;37.03;;;15.85;;
31402;SDS011;18039;52.188;21.024;2022-12-18T00:51:52;49.50;;;19.90;;
31402;SDS011;18039;52.188;21.024;2022-12-18T00:54:19;36.55;;;16.10;;
31402;SDS011;18039;52.188;21.024;2022-12-18T00:56:47;41.10;;;16.52;;
31402;SDS011;18039;52.188;21.024;2022-12-18T00:59:16;45.53;;;18.48;;
31402;SDS011;18039;52.188;21.024;2022-12-18T01:01:44;40.95;;;17.33;;
31402;SDS011;18039;52.188;21.024;2022-12-18T01:04:11;39.13;;;16.83;;
31402;SDS011;18039;52.188;21.024;2022-12-18T01:06:39;35.85;;;17.23;;
31402;SDS011;18039;52.188;21.024;2022-12-18T01:09:06;39.97;;;17.20;;
31402;SDS011;18039;52.188;21.024;2022-12-18T01:11:36;43.88;;;18.92;;
31402;SDS011;18039;52.188;21.024;2022-12-18T01:14:03;42.78;;;18.45;;
31402;SDS011;18039;52.188;21.024;2022-12-18T01:16:31;45.88;;;17.55;;
31402;SDS011;18039;52.188;21.024;2022-12-18T01:18:58;33.70;;;16.10;;
31402;SDS011;18039;52.188;21.024;2022-12-18T01:21:26;46.08;;;17.60;;
31402;SDS011;18039;52.188;21.024;2022-12-18T01:23:54;40.97;;;17.30;;
31402;SDS011;18039;52.188;21.024;2022-12-18T01:26:23;42.00;;;18.17;;
31402;SDS011;18039;52.188;21.024;2022-12-18T01:28:51;41.67;;;17.08;;
31402;SDS011;18039;52.188;21.024;2022-12-18T01:31:21;40.90;;;18.42;;
31402;SDS011;18039;52.188;21.024;2022-12-18T01:33:51;34.70;;;14.45;;
31402;SDS011;18039;52.188;21.024;2022-12-18T01:36:20;43.08;;;17.00;;
31402;SDS011;18039;52.188;21.024;2022-12-18T01:38:50;46.13;;;17.17;;
31402;SDS011;18039;52.188;21.024;2022-12-18T01:41:20;41.90;;;16.67;;
31402;SDS011;18039;52.188;21.024;2022-12-18T01:43:53;40.13;;;17.90;;
31402;SDS011;18039;52.188;21.024;2022-12-18T01:46:24;44.38;;;20.52;;
31402;SDS011;18039;52.188;21.024;2022-12-18T01:48:58;38.03;;;16.60;;
31402;SDS011;18039;52.188;21.024;2022-12-18T01:51:28;39.67;;;16.02;;
31402;SDS011;18039;52.188;21.024;2022-12-18T01:53:57;39.13;;;16.70;;
31402;SDS011;18039;52.188;21.024;2022-12-18T01:56:26;40.30;;;16.33;;
31402;SDS011;18039;52.188;21.024;2022-12-18T01:58:55;35.25;;;15.80;;
31402;SDS011;18039;52.188;21.024;2022-12-18T02:01:26;41.70;;;15.52;;
31402;SDS011;18039;52.188;21.024;2022-12-18T02:03:55;41.08;;;16.95;;
31402;SDS011;18039;52.188;21.024;2022-12-18T02:06:43;37.67;;;15.00;;
31402;SDS011;18039;52.188;21.024;2022-12-18T02:09:11;39.28;;;15.48;;
31402;SDS011;18039;52.188;21.024;2022-12-18T02:11:50;38.65;;;15.98;;
31402;SDS011;18039;52.188;21.024;2022-12-18T02:17:15;36.80;;;15.93;;
31402;SDS011;18039;52.188;21.024;2022-12-18T02:22:41;40.17;;;15.95;;
31402;SDS011;18039;52.188;21.024;2022-12-18T02:27:53;41.47;;;17.63;;
31402;SDS011;18039;52.188;21.024;2022-12-18T02:30:24;36.63;;;15.00;;
31402;SDS011;18039;52.188;21.024;2022-12-18T02:32:53;40.83;;;15.05;;
31402;SDS011;18039;52.188;21.024;2022-12-18T02:35:40;36.83;;;16.20;;
31402;SDS011;18039;52.188;21.024;2022-12-18T02:38:11;44.10;;;16.17;;
31402;SDS011;18039;52.188;21.024;2022-12-18T02:40:40;33.03;;;15.05;;
31402;SDS011;18039;52.188;21.024;2022-12-18T02:43:14;41.92;;;17.63;;
31402;SDS011;18039;52.188;21.024;2022-12-18T02:45:46;43.40;;;17.88;;
31402;SDS011;18039;52.188;21.024;2022-12-18T02:48:20;40.40;;;17.35;;
31402;SDS011;18039;52.188;21.024;2022-12-18T02:51:10;37.03;;;16.92;;
31402;SDS011;18039;52.188;21.024;2022-12-18T02:57:05;44.35;;;18.92;;
31402;SDS011;18039;52.188;21.024;2022-12-18T02:59:49;43.88;;;20.30;;
31402;SDS011;18039;52.188;21.024;2022-12-18T03:05:31;42.00;;;15.88;;
31402;SDS011;18039;52.188;21.024;2022-12-18T03:10:42;37.03;;;15.55;;
31402;SDS011;18039;52.188;21.024;2022-12-18T03:13:19;43.25;;;16.90;;
31402;SDS011;18039;52.188;21.024;2022-12-18T03:15:52;44.90;;;16.63;;
31402;SDS011;18039;52.188;21.024;2022-12-18T03:18:24;39.20;;;15.07;;
31402;SDS011;18039;52.188;21.024;2022-12-18T03:20:57;44.08;;;15.35;;
31402;SDS011;18039;52.188;21.024;2022-12-18T03:23:27;36.28;;;16.13;;
31402;SDS011;18039;52.188;21.024;2022-12-18T03:26:00;40.55;;;16.88;;
31402;SDS011;18039;52.188;21.024;2022-12-18T03:28:38;46.08;;;18.20;;
31402;SDS011;18039;52.188;21.024;2022-12-18T03:31:10;45.72;;;16.65;;
31402;SDS011;18039;52.188;21.024;2022-12-18T03:36:23;43.65;;;16.55;;
31402;SDS011;18039;52.188;21.024;2022-12-18T03:38:51;47.60;;;16.75;;
31402;SDS011;18039;52.188;21.024;2022-12-18T03:41:30;38.75;;;17.55;;
31402;SDS011;18039;52.188;21.024;2022-12-18T03:44:57;37.83;;;16.02;;
31402;SDS011;18039;52.188;21.024;2022-12-18T03:47:47;46.25;;;15.63;;
31402;SDS011;18039;52.188;21.024;2022-12-18T03:55:52;42.25;;;15.18;;
31402;SDS011;18039;52.188;21.024;2022-12-18T03:58:23;38.53;;;16.30;;
31402;SDS011;18039;52.188;21.024;2022-12-18T04:01:05;48.47;;;17.55;;
31402;SDS011;18039;52.188;21.024;2022-12-18T04:03:36;31.67;;;13.00;;
31402;SDS011;18039;52.188;21.024;2022-12-18T04:06:06;49.35;;;16.98;;
31402;SDS011;18039;52.188;21.024;2022-12-18T04:08:34;39.47;;;14.82;;
31402;SDS011;18039;52.188;21.024;2022-12-18T04:11:05;44.15;;;16.10;;
31402;SDS011;18039;52.188;21.024;2022-12-18T04:13:36;36.53;;;15.82;;
31402;SDS011;18039;52.188;21.024;2022-12-18T04:16:09;42.35;;;15.65;;
31402;SDS011;18039;52.188;21.024;2022-12-18T04:18:40;52.70;;;19.67;;
31402;SDS011;18039;52.188;21.024;2022-12-18T04:21:07;46.58;;;19.55;;
31402;SDS011;18039;52.188;21.024;2022-12-18T04:23:36;48.08;;;17.27;;
31402;SDS011;18039;52.188;21.024;2022-12-18T04:26:03;44.30;;;15.75;;
31402;SDS011;18039;52.188;21.024;2022-12-18T04:28:49;36.83;;;18.55;;
31402;SDS011;18039;52.188;21.024;2022-12-18T04:31:16;45.55;;;19.25;;
31402;SDS011;18039;52.188;21.024;2022-12-18T04:33:43;35.55;;;13.48;;
31402;SDS011;18039;52.188;21.024;2022-12-18T04:36:10;37.47;;;15.73;;
31402;SDS011;18039;52.188;21.024;2022-12-18T04:38:39;41.45;;;17.67;;
31402;SDS011;18039;52.188;21.024;2022-12-18T04:41:10;42.90;;;16.17;;
31402;SDS011;18039;52.188;21.024;2022-12-18T04:43:39;35.72;;;13.30;;
31402;SDS011;18039;52.188;21.024;2022-12-18T04:46:06;34.30;;;14.18;;
31402;SDS011;18039;52.188;21.024;2022-12-18T04:48:35;37.85;;;15.48;;
31402;SDS011;18039;52.188;21.024;2022-12-18T04:51:03;32.58;;;14.07;;
31402;SDS011;18039;52.188;21.024;2022-12-18T04:53:31;37.33;;;15.43;;
31402;SDS011;18039;52.188;21.024;2022-12-18T04:56:02;31.70;;;13.02;;
31402;SDS011;18039;52.188;21.024;2022-12-18T05:00:57;32.65;;;13.98;;
31402;SDS011;18039;52.188;21.024;2022-12-18T05:03:24;40.08;;;16.38;;
31402;SDS011;18039;52.188;21.024;2022-12-18T05:05:51;37.90;;;15.52;;
31402;SDS011;18039;52.188;21.024;2022-12-18T05:08:18;39.08;;;14.73;;
31402;SDS011;18039;52.188;21.024;2022-12-18T05:10:45;39.90;;;15.20;;
31402;SDS011;18039;52.188;21.024;2022-12-18T05:13:12;37.53;;;14.65;;
31402;SDS011;18039;52.188;21.024;2022-12-18T05:15:39;38.70;;;15.23;;
31402;SDS011;18039;52.188;21.024;2022-12-18T05:18:07;36.28;;;14.57;;
31402;SDS011;18039;52.188;21.024;2022-12-18T05:20:34;33.03;;;13.68;;
31402;SDS011;18039;52.188;21.024;2022-12-18T05:23:01;40.17;;;13.13;;
31402;SDS011;18039;52.188;21.024;2022-12-18T05:25:28;39.05;;;14.82;;
31402;SDS011;18039;52.188;21.024;2022-12-18T05:27:55;33.28;;;12.63;;
31402;SDS011;18039;52.188;21.024;2022-12-18T05:30:22;48.75;;;16.95;;
31402;SDS011;18039;52.188;21.024;2022-12-18T05:32:49;42.72;;;16.02;;
31402;SDS011;18039;52.188;21.024;2022-12-18T05:35:17;36.58;;;15.98;;
31402;SDS011;18039;52.188;21.024;2022-12-18T05:37:44;50.42;;;21.02;;
31402;SDS011;18039;52.188;21.024;2022-12-18T05:40:11;44.05;;;16.90;;
31402;SDS011;18039;52.188;21.024;2022-12-18T05:42:38;43.53;;;16.27;;
31402;SDS011;18039;52.188;21.024;2022-12-18T05:45:06;48.35;;;19.98;;
31402;SDS011;18039;52.188;21.024;2022-12-18T05:47:33;45.78;;;16.80;;
31402;SDS011;18039;52.188;21.024;2022-12-18T05:50:00;50.72;;;17.60;;
31402;SDS011;18039;52.188;21.024;2022-12-18T05:52:27;50.85;;;17.88;;
31402;SDS011;18039;52.188;21.024;2022-12-18T05:54:54;54.03;;;18.98;;
31402;SDS011;18039;52.188;21.024;2022-12-18T05:57:21;48.97;;;19.50;;
31402;SDS011;18039;52.188;21.024;2022-12-18T05:59:48;50.45;;;20.17;;
31402;SDS011;18039;52.188;21.024;2022-12-18T06:02:15;48.90;;;17.50;;
31402;SDS011;18039;52.188;21.024;2022-12-18T06:04:43;52.30;;;17.95;;
31402;SDS011;18039;52.188;21.024;2022-12-18T06:07:10;59.08;;;23.15;;
31402;SDS011;18039;52.188;21.024;2022-12-18T06:09:37;44.40;;;17.45;;
31402;SDS011;18039;52.188;21.024;2022-12-18T06:12:04;52.15;;;17.13;;
31402;SDS011;18039;52.188;21.024;2022-12-18T06:14:31;53.95;;;20.17;;
31402;SDS011;18039;52.188;21.024;2022-12-18T06:16:58;58.20;;;19.45;;
31402;SDS011;18039;52.188;21.024;2022-12-18T06:19:25;50.30;;;16.58;;
31402;SDS011;18039;52.188;21.024;2022-12-18T06:21:52;54.22;;;19.08;;
31402;SDS011;18039;52.188;21.024;2022-12-18T06:24:19;60.70;;;21.10;;
31402;SDS011;18039;52.188;21.024;2022-12-18T06:26:46;53.75;;;19.88;;
31402;SDS011;18039;52.188;21.024;2022-12-18T06:29:13;55.88;;;19.60;;
31402;SDS011;18039;52.188;21.024;2022-12-18T06:31:40;61.55;;;18.92;;
31402;SDS011;18039;52.188;21.024;2022-12-18T06:34:07;62.08;;;20.50;;
31402;SDS011;18039;52.188;21.024;2022-12-18T06:36:35;65.53;;;20.52;;
31402;SDS011;18039;52.188;21.024;2022-12-18T06:39:02;53.38;;;18.88;;
31402;SDS011;18039;52.188;21.024;2022-12-18T06:41:30;57.92;;;19.67;;
31402;SDS011;18039;52.188;21.024;2022-12-18T06:43:57;55.33;;;18.75;;
31402;SDS011;18039;52.188;21.024;2022-12-18T06:46:26;54.85;;;18.63;;
31402;SDS011;18039;52.188;21.024;2022-12-18T06:48:53;48.28;;;18.50;;
31402;SDS011;18039;52.188;21.024;2022-12-18T06:51:23;61.80;;;21.75;;
31402;SDS011;18039;52.188;21.024;2022-12-18T06:53:50;57.92;;;19.27;;
31402;SDS011;18039;52.188;21.024;2022-12-18T06:56:17;49.05;;;16.70;;
31402;SDS011;18039;52.188;21.024;2022-12-18T06:58:44;57.47;;;19.50;;
31402;SDS011;18039;52.188;21.024;2022-12-18T07:01:30;50.35;;;17.83;;
31402;SDS011;18039;52.188;21.024;2022-12-18T07:03:57;43.92;;;17.08;;
31402;SDS011;18039;52.188;21.024;2022-12-18T07:06:24;46.88;;;17.10;;
31402;SDS011;18039;52.188;21.024;2022-12-18T07:08:53;61.70;;;21.45;;
31402;SDS011;18039;52.188;21.024;2022-12-18T07:11:20;45.58;;;17.23;;
31402;SDS011;18039;52.188;21.024;2022-12-18T07:13:48;49.58;;;16.75;;
31402;SDS011;18039;52.188;21.024;2022-12-18T07:16:16;40.60;;;16.00;;
31402;SDS011;18039;52.188;21.024;2022-12-18T07:18:51;61.42;;;20.77;;
31402;SDS011;18039;52.188;21.024;2022-12-18T07:21:20;52.05;;;18.00;;
31402;SDS011;18039;52.188;21.024;2022-12-18T07:23:48;55.78;;;18.90;;
31402;SDS011;18039;52.188;21.024;2022-12-18T07:26:17;42.85;;;16.92;;
31402;SDS011;18039;52.188;21.024;2022-12-18T07:28:47;53.92;;;17.33;;
31402;SDS011;18039;52.188;21.024;2022-12-18T07:31:16;52.58;;;17.63;;
31402;SDS011;18039;52.188;21.024;2022-12-18T07:33:47;46.17;;;16.60;;
31402;SDS011;18039;52.188;21.024;2022-12-18T07:36:14;51.05;;;18.48;;
31402;SDS011;18039;52.188;21.024;2022-12-18T07:38:42;54.22;;;17.73;;
31402;SDS011;18039;52.188;21.024;2022-12-18T07:41:10;47.08;;;17.85;;
31402;SDS011;18039;52.188;21.024;2022-12-18T07:43:39;56.22;;;17.65;;
31402;SDS011;18039;52.188;21.024;2022-12-18T07:46:08;53.38;;;17.17;;
31402;SDS011;18039;52.188;21.024;2022-12-18T07:48:39;44.47;;;17.23;;
31402;SDS011;18039;52.188;21.024;2022-12-18T07:51:06;46.80;;;17.58;;
31402;SDS011;18039;52.188;21.024;2022-12-18T07:53:34;48.60;;;17.25;;
31402;SDS011;18039;52.188;21.024;2022-12-18T07:56:04;55.40;;;17.33;;
31402;SDS011;18039;52.188;21.024;2022-12-18T07:58:53;43.00;;;16.40;;
31402;SDS011;18039;52.188;21.024;2022-12-18T08:01:20;65.07;;;19.33;;
31402;SDS011;18039;52.188;21.024;2022-12-18T08:03:47;57.35;;;19.13;;
31402;SDS011;18039;52.188;21.024;2022-12-18T08:06:18;49.22;;;16.75;;
31402;SDS011;18039;52.188;21.024;2022-12-18T08:08:51;56.83;;;20.00;;
31402;SDS011;18039;52.188;21.024;2022-12-18T08:11:19;48.65;;;17.90;;
31402;SDS011;18039;52.188;21.024;2022-12-18T08:13:47;50.72;;;17.42;;
31402;SDS011;18039;52.188;21.024;2022-12-18T08:16:15;45.67;;;18.20;;
31402;SDS011;18039;52.188;21.024;2022-12-18T08:18:42;47.53;;;18.95;;
31402;SDS011;18039;52.188;21.024;2022-12-18T08:21:14;54.83;;;18.20;;
31402;SDS011;18039;52.188;21.024;2022-12-18T08:23:48;50.83;;;18.73;;
31402;SDS011;18039;52.188;21.024;2022-12-18T08:26:17;47.67;;;17.48;;
31402;SDS011;18039;52.188;21.024;2022-12-18T08:28:46;55.60;;;17.80;;
31402;SDS011;18039;52.188;21.024;2022-12-18T08:31:15;51.95;;;17.70;;
31402;SDS011;18039;52.188;21.024;2022-12-18T08:33:42;47.25;;;17.80;;
31402;SDS011;18039;52.188;21.024;2022-12-18T08:36:10;45.67;;;18.02;;
31402;SDS011;18039;52.188;21.024;2022-12-18T08:38:37;50.78;;;17.40;;
31402;SDS011;18039;52.188;21.024;2022-12-18T08:41:05;51.60;;;18.58;;
31402;SDS011;18039;52.188;21.024;2022-12-18T08:43:34;46.00;;;17.90;;
31402;SDS011;18039;52.188;21.024;2022-12-18T08:46:20;48.88;;;17.25;;
31402;SDS011;18039;52.188;21.024;2022-12-18T08:48:50;42.15;;;17.45;;
31402;SDS011;18039;52.188;21.024;2022-12-18T08:51:18;47.95;;;18.63;;
31402;SDS011;18039;52.188;21.024;2022-12-18T08:53:45;56.95;;;21.55;;
31402;SDS011;18039;52.188;21.024;2022-12-18T08:56:12;55.22;;;19.77;;
31402;SDS011;18039;52.188;21.024;2022-12-18T08:58:40;54.40;;;18.40;;
31402;SDS011;18039;52.188;21.024;2022-12-18T09:01:09;50.83;;;18.52;;
31402;SDS011;18039;52.188;21.024;2022-12-18T09:03:38;53.22;;;19.58;;
31402;SDS011;18039;52.188;21.024;2022-12-18T09:06:06;52.70;;;18.40;;
31402;SDS011;18039;52.188;21.024;2022-12-18T09:08:34;51.13;;;19.48;;
31402;SDS011;18039;52.188;21.024;2022-12-18T09:11:01;41.45;;;17.55;;
31402;SDS011;18039;52.188;21.024;2022-12-18T09:13:29;43.17;;;17.50;;
31402;SDS011;18039;52.188;21.024;2022-12-18T09:15:56;56.30;;;20.77;;
31402;SDS011;18039;52.188;21.024;2022-12-18T09:18:23;52.08;;;18.73;;
31402;SDS011;18039;52.188;21.024;2022-12-18T09:20:51;49.10;;;20.55;;
31402;SDS011;18039;52.188;21.024;2022-12-18T09:23:20;49.00;;;19.10;;
31402;SDS011;18039;52.188;21.024;2022-12-18T09:25:48;46.38;;;16.75;;
31402;SDS011;18039;52.188;21.024;2022-12-18T09:28:18;56.95;;;20.77;;
31402;SDS011;18039;52.188;21.024;2022-12-18T09:30:48;53.25;;;20.48;;
31402;SDS011;18039;52.188;21.024;2022-12-18T09:33:16;55.70;;;22.23;;
31402;SDS011;18039;52.188;21.024;2022-12-18T09:35:44;50.38;;;20.00;;
31402;SDS011;18039;52.188;21.024;2022-12-18T09:38:15;48.90;;;19.98;;
31402;SDS011;18039;52.188;21.024;2022-12-18T09:40:45;46.92;;;19.20;;
31402;SDS011;18039;52.188;21.024;2022-12-18T09:43:18;48.55;;;19.45;;
31402;SDS011;18039;52.188;21.024;2022-12-18T09:45:52;52.72;;;20.25;;
31402;SDS011;18039;52.188;21.024;2022-12-18T09:48:27;50.10;;;19.95;;
31402;SDS011;18039;52.188;21.024;2022-12-18T09:51:02;41.35;;;17.48;;
31402;SDS011;18039;52.188;21.024;2022-12-18T09:53:37;44.17;;;18.05;;
31402;SDS011;18039;52.188;21.024;2022-12-18T09:56:10;49.65;;;19.45;;
31402;SDS011;18039;52.188;21.024;2022-12-18T09:58:45;55.38;;;18.58;;
31402;SDS011;18039;52.188;21.024;2022-12-18T10:01:22;48.63;;;19.15;;
31402;SDS011;18039;52.188;21.024;2022-12-18T10:03:51;60.92;;;21.42;;
31402;SDS011;18039;52.188;21.024;2022-12-18T10:09:05;47.67;;;20.67;;
31402;SDS011;18039;52.188;21.024;2022-12-18T10:14:23;63.88;;;23.75;;
31402;SDS011;18039;52.188;21.024;2022-12-18T10:17:08;55.20;;;21.42;;
31402;SDS011;18039;52.188;21.024;2022-12-18T10:25:03;52.03;;;22.13;;
31402;SDS011;18039;52.188;21.024;2022-12-18T10:27:41;70.05;;;23.45;;
31402;SDS011;18039;52.188;21.024;2022-12-18T10:30:15;62.15;;;24.00;;
31402;SDS011;18039;52.188;21.024;2022-12-18T10:32:43;71.18;;;22.70;;
31402;SDS011;18039;52.188;21.024;2022-12-18T10:35:16;70.82;;;24.80;;
31402;SDS011;18039;52.188;21.024;2022-12-18T10:43:40;56.53;;;22.02;;
31402;SDS011;18039;52.188;21.024;2022-12-18T10:48:47;60.97;;;23.73;;
31402;SDS011;18039;52.188;21.024;2022-12-18T10:51:30;66.47;;;22.67;;
31402;SDS011;18039;52.188;21.024;2022-12-18T10:54:01;57.90;;;22.10;;
31402;SDS011;18039;52.188;21.024;2022-12-18T10:56:43;57.45;;;21.70;;
31402;SDS011;18039;52.188;21.024;2022-12-18T10:59:12;56.80;;;21.17;;
31402;SDS011;18039;52.188;21.024;2022-12-18T11:01:46;54.95;;;22.95;;
31402;SDS011;18039;52.188;21.024;2022-12-18T11:04:19;54.15;;;20.95;;
31402;SDS011;18039;52.188;21.024;2022-12-18T11:09:30;60.80;;;22.38;;
31402;SDS011;18039;52.188;21.024;2022-12-18T11:14:45;66.75;;;27.52;;
31402;SDS011;18039;52.188;21.024;2022-12-18T11:20:19;60.10;;;22.80;;
31402;SDS011;18039;52.188;21.024;2022-12-18T11:22:57;64.32;;;21.83;;
31402;SDS011;18039;52.188;21.024;2022-12-18T11:25:27;62.45;;;20.92;;
31402;SDS011;18039;52.188;21.024;2022-12-18T11:28:01;55.50;;;20.50;;
31402;SDS011;18039;52.188;21.024;2022-12-18T11:30:32;61.38;;;21.52;;
31402;SDS011;18039;52.188;21.024;2022-12-18T11:35:44;62.53;;;23.83;;
31402;SDS011;18039;52.188;21.024;2022-12-18T11:38:26;58.25;;;22.73;;
31402;SDS011;18039;52.188;21.024;2022-12-18T11:40:57;57.80;;;21.60;;
31402;SDS011;18039;52.188;21.024;2022-12-18T11:43:29;52.38;;;21.25;;
31402;SDS011;18039;52.188;21.024;2022-12-18T11:46:03;59.15;;;20.35;;
31402;SDS011;18039;52.188;21.024;2022-12-18T11:48:37;52.78;;;20.17;;
31402;SDS011;18039;52.188;21.024;2022-12-18T11:51:11;61.13;;;20.98;;
31402;SDS011;18039;52.188;21.024;2022-12-18T11:53:44;67.10;;;23.77;;
31402;SDS011;18039;52.188;21.024;2022-12-18T11:56:19;52.92;;;20.27;;
31402;SDS011;18039;52.188;21.024;2022-12-18T11:58:56;62.78;;;21.73;;
31402;SDS011;18039;52.188;21.024;2022-12-18T12:01:42;54.13;;;20.70;;
31402;SDS011;18039;52.188;21.024;2022-12-18T12:04:26;59.05;;;21.90;;
31402;SDS011;18039;52.188;21.024;2022-12-18T12:10:22;63.85;;;22.48;;
31402;SDS011;18039;52.188;21.024;2022-12-18T12:15:46;66.38;;;23.30;;
31402;SDS011;18039;52.188;21.024;2022-12-18T12:18:40;63.88;;;22.98;;
31402;SDS011;18039;52.188;21.024;2022-12-18T12:26:49;61.53;;;22.52;;
31402;SDS011;18039;52.188;21.024;2022-12-18T12:29:29;73.30;;;24.58;;
31402;SDS011;18039;52.188;21.024;2022-12-18T12:32:07;57.88;;;22.67;;
31402;SDS011;18039;52.188;21.024;2022-12-18T12:35:02;68.90;;;25.02;;
31402;SDS011;18039;52.188;21.024;2022-12-18T12:40:10;66.78;;;23.70;;
31402;SDS011;18039;52.188;21.024;2022-12-18T12:43:10;61.97;;;22.95;;
31402;SDS011;18039;52.188;21.024;2022-12-18T12:48:44;59.45;;;22.00;;
31402;SDS011;18039;52.188;21.024;2022-12-18T12:51:29;54.92;;;21.13;;
31402;SDS011;18039;52.188;21.024;2022-12-18T12:54:01;60.22;;;21.70;;
31402;SDS011;18039;52.188;21.024;2022-12-18T12:56:54;69.15;;;23.92;;
31402;SDS011;18039;52.188;21.024;2022-12-18T13:02:41;52.30;;;19.08;;
31402;SDS011;18039;52.188;21.024;2022-12-18T13:05:24;51.78;;;19.67;;
31402;SDS011;18039;52.188;21.024;2022-12-18T13:08:02;57.03;;;20.13;;
31402;SDS011;18039;52.188;21.024;2022-12-18T13:10:34;59.63;;;23.20;;
31402;SDS011;18039;52.188;21.024;2022-12-18T13:13:03;59.05;;;21.20;;
31402;SDS011;18039;52.188;21.024;2022-12-18T13:15:40;61.88;;;22.40;;
31402;SDS011;18039;52.188;21.024;2022-12-18T13:18:22;55.55;;;22.00;;
31402;SDS011;18039;52.188;21.024;2022-12-18T13:20:51;54.08;;;20.13;;
31402;SDS011;18039;52.188;21.024;2022-12-18T13:23:31;56.60;;;18.88;;
31402;SDS011;18039;52.188;21.024;2022-12-18T13:31:14;55.38;;;21.67;;
31402;SDS011;18039;52.188;21.024;2022-12-18T13:39:58;64.43;;;22.17;;
31402;SDS011;18039;52.188;21.024;2022-12-18T13:42:35;59.92;;;21.60;;
31402;SDS011;18039;52.188;21.024;2022-12-18T13:45:38;60.72;;;22.17;;
31402;SDS011;18039;52.188;21.024;2022-12-18T13:48:16;66.22;;;21.30;;
31402;SDS011;18039;52.188;21.024;2022-12-18T13:50:57;63.35;;;21.88;;
31402;SDS011;18039;52.188;21.024;2022-12-18T13:53:29;61.83;;;22.52;;
31402;SDS011;18039;52.188;21.024;2022-12-18T13:55:59;56.70;;;21.33;;
31402;SDS011;18039;52.188;21.024;2022-12-18T13:58:27;52.78;;;20.27;;
31402;SDS011;18039;52.188;21.024;2022-12-18T14:00:54;61.05;;;24.38;;
31402;SDS011;18039;52.188;21.024;2022-12-18T14:03:23;54.97;;;22.20;;
31402;SDS011;18039;52.188;21.024;2022-12-18T14:06:00;62.17;;;22.25;;
31402;SDS011;18039;52.188;21.024;2022-12-18T14:08:33;61.30;;;20.02;;
31402;SDS011;18039;52.188;21.024;2022-12-18T14:11:06;52.72;;;20.20;;
31402;SDS011;18039;52.188;21.024;2022-12-18T14:13:45;52.17;;;20.15;;
31402;SDS011;18039;52.188;21.024;2022-12-18T14:16:14;54.10;;;22.33;;
31402;SDS011;18039;52.188;21.024;2022-12-18T14:18:51;55.08;;;20.90;;
31402;SDS011;18039;52.188;21.024;2022-12-18T14:21:28;59.28;;;24.60;;
31402;SDS011;18039;52.188;21.024;2022-12-18T14:24:04;48.50;;;19.60;;
31402;SDS011;18039;52.188;21.024;2022-12-18T14:26:32;62.05;;;23.73;;
31402;SDS011;18039;52.188;21.024;2022-12-18T14:29:01;63.30;;;22.15;;
31402;SDS011;18039;52.188;21.024;2022-12-18T14:31:45;58.72;;;21.42;;
31402;SDS011;18039;52.188;21.024;2022-12-18T14:34:16;53.90;;;19.33;;
31402;SDS011;18039;52.188;21.024;2022-12-18T14:36:51;50.72;;;20.13;;
31402;SDS011;18039;52.188;21.024;2022-12-18T14:39:19;51.83;;;19.25;;
31402;SDS011;18039;52.188;21.024;2022-12-18T14:41:48;53.53;;;20.60;;
31402;SDS011;18039;52.188;21.024;2022-12-18T14:44:15;60.13;;;21.77;;
31402;SDS011;18039;52.188;21.024;2022-12-18T14:46:43;60.95;;;21.73;;
31402;SDS011;18039;52.188;21.024;2022-12-18T14:51:48;55.65;;;20.95;;
31402;SDS011;18039;52.188;21.024;2022-12-18T14:54:19;52.60;;;21.27;;
31402;SDS011;18039;52.188;21.024;2022-12-18T14:56:55;61.45;;;21.80;;
31402;SDS011;18039;52.188;21.024;2022-12-18T14:59:28;51.38;;;19.88;;
31402;SDS011;18039;52.188;21.024;2022-12-18T15:04:47;62.47;;;22.13;;
31402;SDS011;18039;52.188;21.024;2022-12-18T15:07:15;57.60;;;21.92;;
31402;SDS011;18039;52.188;21.024;2022-12-18T15:10:00;49.03;;;20.90;;
31402;SDS011;18039;52.188;21.024;2022-12-18T15:12:35;56.00;;;21.67;;
31402;SDS011;18039;52.188;21.024;2022-12-18T15:18:00;52.38;;;19.75;;
31402;SDS011;18039;52.188;21.024;2022-12-18T15:20:53;50.40;;;19.77;;
31402;SDS011;18039;52.188;21.024;2022-12-18T15:23:23;51.13;;;18.90;;
31402;SDS011;18039;52.188;21.024;2022-12-18T15:25:55;52.15;;;19.77;;
31402;SDS011;18039;52.188;21.024;2022-12-18T15:36:17;55.78;;;21.38;;
31402;SDS011;18039;52.188;21.024;2022-12-18T15:38:53;51.17;;;20.67;;
31402;SDS011;18039;52.188;21.024;2022-12-18T15:41:31;56.25;;;20.20;;
31402;SDS011;18039;52.188;21.024;2022-12-18T15:44:02;54.65;;;21.30;;
31402;SDS011;18039;52.188;21.024;2022-12-18T15:46:30;63.42;;;21.90;;
31402;SDS011;18039;52.188;21.024;2022-12-18T15:48:58;54.40;;;18.15;;
31402;SDS011;18039;52.188;21.024;2022-12-18T15:51:29;50.63;;;19.10;;
31402;SDS011;18039;52.188;21.024;2022-12-18T15:54:00;47.53;;;18.27;;
31402;SDS011;18039;52.188;21.024;2022-12-18T15:56:30;43.35;;;16.02;;
31402;SDS011;18039;52.188;21.024;2022-12-18T15:59:17;44.63;;;18.33;;
31402;SDS011;18039;52.188;21.024;2022-12-18T16:01:47;49.80;;;18.05;;
31402;SDS011;18039;52.188;21.024;2022-12-18T16:04:16;44.60;;;19.00;;
31402;SDS011;18039;52.188;21.024;2022-12-18T16:06:47;48.88;;;18.40;;
31402;SDS011;18039;52.188;21.024;2022-12-18T16:09:34;49.13;;;18.08;;
31402;SDS011;18039;52.188;21.024;2022-12-18T16:12:02;44.60;;;18.70;;
31402;SDS011;18039;52.188;21.024;2022-12-18T16:14:29;50.55;;;18.40;;
31402;SDS011;18039;52.188;21.024;2022-12-18T16:17:01;52.75;;;18.20;;
31402;SDS011;18039;52.188;21.024;2022-12-18T16:19:31;52.50;;;19.05;;
31402;SDS011;18039;52.188;21.024;2022-12-18T16:21:59;36.67;;;15.73;;